sensor_id;sensor_type;location;lat;lon;timestamp;pressure;altitude;pressure_sealevel;temperature;humidity
62057;BME280;48016;50.284;18.860;2022-09-09T00:01:26;97847.20;;;16.96;90.45
62057;BME280;48016;50.284;18.860;2022-09-09T00:06:45;97843.97;;;16.94;90.41
62057;BME280;48016;50.284;18.860;2022-09-09T00:09:19;97838.51;;;16.94;90.39
62057;BME280;48016;50.284;18.860;2022-09-09T00:11:51;97842.84;;;16.95;90.61
62057;BME280;48016;50.284;18.860;2022-09-09T00:17:11;97846.89;;;16.98;90.59
62057;BME280;48016;50.284;18.860;2022-09-09T00:19:46;97848.20;;;17.00;90.62
62057;BME280;48016;50.284;18.860;2022-09-09T00:22:24;97849.83;;;17.01;90.70
62057;BME280;48016;50.284;18.860;2022-09-09T00:24:54;97853.36;;;17.02;90.49
62057;BME280;48016;50.284;18.860;2022-09-09T00:32:40;97855.91;;;16.98;90.75
62057;BME280;48016;50.284;18.860;2022-09-09T00:38:14;97847.20;;;16.96;90.87
62057;BME280;48016;50.284;18.860;2022-09-09T00:40:51;97849.61;;;16.98;90.87
62057;BME280;48016;50.284;18.860;2022-09-09T00:43:32;97850.45;;;16.98;90.83
62057;BME280;48016;50.284;18.860;2022-09-09T00:46:21;97848.52;;;16.99;91.08
62057;BME280;48016;50.284;18.860;2022-09-09T00:55:16;97866.94;;;16.93;91.09
62057;BME280;48016;50.284;18.860;2022-09-09T00:57:51;97868.03;;;16.92;91.12
62057;BME280;48016;50.284;18.860;2022-09-09T01:03:18;97872.50;;;16.88;91.36
62057;BME280;48016;50.284;18.860;2022-09-09T01:06:00;97875.74;;;16.90;91.10
62057;BME280;48016;50.284;18.860;2022-09-09T01:08:39;97880.69;;;16.88;90.90
62057;BME280;48016;50.284;18.860;2022-09-09T01:14:03;97874.72;;;16.86;90.82
62057;BME280;48016;50.284;18.860;2022-09-09T01:16:37;97878.58;;;16.85;91.06
62057;BME280;48016;50.284;18.860;2022-09-09T01:19:07;97876.97;;;16.84;90.81
62057;BME280;48016;50.284;18.860;2022-09-09T01:21:55;97878.39;;;16.81;91.00
62057;BME280;48016;50.284;18.860;2022-09-09T01:27:15;97885.27;;;16.79;91.21
62057;BME280;48016;50.284;18.860;2022-09-09T01:29:44;97886.13;;;16.74;90.94
62057;BME280;48016;50.284;18.860;2022-09-09T01:32:44;97889.19;;;16.72;91.32
62057;BME280;48016;50.284;18.860;2022-09-09T01:35:36;97890.28;;;16.71;91.08
62057;BME280;48016;50.284;18.860;2022-09-09T01:38:05;97888.67;;;16.70;91.06
62057;BME280;48016;50.284;18.860;2022-09-09T01:40:33;97886.55;;;16.67;91.09
62057;BME280;48016;50.284;18.860;2022-09-09T01:43:00;97883.83;;;16.67;91.34
62057;BME280;48016;50.284;18.860;2022-09-09T01:45:28;97889.09;;;16.64;90.93
62057;BME280;48016;50.284;18.860;2022-09-09T01:47:55;97891.30;;;16.62;90.85
62057;BME280;48016;50.284;18.860;2022-09-09T01:50:23;97898.69;;;16.61;90.81
62057;BME280;48016;50.284;18.860;2022-09-09T01:52:52;97895.96;;;16.61;91.09
62057;BME280;48016;50.284;18.860;2022-09-09T01:55:37;97899.30;;;16.58;90.94
62057;BME280;48016;50.284;18.860;2022-09-09T01:59:12;97902.32;;;16.57;90.79
62057;BME280;48016;50.284;18.860;2022-09-09T02:01:54;97900.52;;;16.52;91.01
62057;BME280;48016;50.284;18.860;2022-09-09T02:04:36;97898.08;;;16.50;90.93
62057;BME280;48016;50.284;18.860;2022-09-09T02:07:31;97897.56;;;16.48;90.35
62057;BME280;48016;50.284;18.860;2022-09-09T02:10:25;97903.34;;;16.47;90.77
62057;BME280;48016;50.284;18.860;2022-09-09T02:18:08;97921.41;;;16.43;91.03
62057;BME280;48016;50.284;18.860;2022-09-09T02:20:37;97908.89;;;16.42;91.12
62057;BME280;48016;50.284;18.860;2022-09-09T02:23:09;97919.00;;;16.41;90.78
62057;BME280;48016;50.284;18.860;2022-09-09T02:25:39;97922.02;;;16.40;90.79
62057;BME280;48016;50.284;18.860;2022-09-09T02:28:08;97917.97;;;16.37;90.80
62057;BME280;48016;50.284;18.860;2022-09-09T02:30:37;97931.41;;;16.34;90.72
62057;BME280;48016;50.284;18.860;2022-09-09T02:33:07;97926.55;;;16.31;90.75
62057;BME280;48016;50.284;18.860;2022-09-09T02:35:37;97932.94;;;16.26;90.98
62057;BME280;48016;50.284;18.860;2022-09-09T02:38:08;97934.94;;;16.20;90.93
62057;BME280;48016;50.284;18.860;2022-09-09T02:40:37;97934.71;;;16.17;90.81
62057;BME280;48016;50.284;18.860;2022-09-09T02:43:04;97930.17;;;16.12;90.87
62057;BME280;48016;50.284;18.860;2022-09-09T02:45:51;97928.33;;;16.08;90.86
62057;BME280;48016;50.284;18.860;2022-09-09T02:48:30;97930.05;;;16.03;90.88
62057;BME280;48016;50.284;18.860;2022-09-09T02:54:31;97940.52;;;15.96;90.95
62057;BME280;48016;50.284;18.860;2022-09-09T02:59:32;97940.91;;;15.90;90.83
62057;BME280;48016;50.284;18.860;2022-09-09T03:02:00;97937.67;;;15.88;90.88
62057;BME280;48016;50.284;18.860;2022-09-09T03:04:28;97935.33;;;15.81;90.75
62057;BME280;48016;50.284;18.860;2022-09-09T03:06:55;97945.72;;;15.79;90.84
62057;BME280;48016;50.284;18.860;2022-09-09T03:09:23;97946.11;;;15.72;90.77
62057;BME280;48016;50.284;18.860;2022-09-09T03:11:50;97941.25;;;15.69;90.70
62057;BME280;48016;50.284;18.860;2022-09-09T03:14:17;97947.81;;;15.68;90.49
62057;BME280;48016;50.284;18.860;2022-09-09T03:16:47;97950.27;;;15.65;90.46
62057;BME280;48016;50.284;18.860;2022-09-09T03:19:15;97950.06;;;15.61;90.45
62057;BME280;48016;50.284;18.860;2022-09-09T03:21:42;97946.60;;;15.55;90.36
62057;BME280;48016;50.284;18.860;2022-09-09T03:24:09;97940.73;;;15.48;90.44
62057;BME280;48016;50.284;18.860;2022-09-09T03:26:36;97943.52;;;15.43;90.46
62057;BME280;48016;50.284;18.860;2022-09-09T03:29:04;97944.11;;;15.40;90.34
62057;BME280;48016;50.284;18.860;2022-09-09T03:31:34;97953.68;;;15.37;90.39
62057;BME280;48016;50.284;18.860;2022-09-09T03:34:02;97957.80;;;15.35;90.40
62057;BME280;48016;50.284;18.860;2022-09-09T03:36:29;97957.59;;;15.31;90.23
62057;BME280;48016;50.284;18.860;2022-09-09T03:38:57;97961.48;;;15.25;90.22
62057;BME280;48016;50.284;18.860;2022-09-09T03:41:24;97961.27;;;15.22;90.25
62057;BME280;48016;50.284;18.860;2022-09-09T03:43:53;97967.00;;;15.20;90.30
62057;BME280;48016;50.284;18.860;2022-09-09T03:46:23;97964.33;;;15.15;90.21
62057;BME280;48016;50.284;18.860;2022-09-09T03:48:51;97970.37;;;15.12;90.20
62057;BME280;48016;50.284;18.860;2022-09-09T03:51:21;97973.67;;;15.09;90.08
62057;BME280;48016;50.284;18.860;2022-09-09T03:53:48;97976.98;;;15.06;90.15
62057;BME280;48016;50.284;18.860;2022-09-09T03:56:15;97973.23;;;15.02;90.17
62057;BME280;48016;50.284;18.860;2022-09-09T03:58:43;97971.91;;;14.99;90.07
62057;BME280;48016;50.284;18.860;2022-09-09T04:01:11;97974.41;;;14.96;90.36
62057;BME280;48016;50.284;18.860;2022-09-09T04:03:41;97976.88;;;14.92;90.18
62057;BME280;48016;50.284;18.860;2022-09-09T04:06:10;97977.45;;;14.89;90.32
62057;BME280;48016;50.284;18.860;2022-09-09T04:08:40;97974.23;;;14.87;90.31
62057;BME280;48016;50.284;18.860;2022-09-09T04:11:08;97967.16;;;14.86;90.25
62057;BME280;48016;50.284;18.860;2022-09-09T04:13:37;97970.19;;;14.84;90.24
62057;BME280;48016;50.284;18.860;2022-09-09T04:16:06;97971.84;;;14.80;90.15
62057;BME280;48016;50.284;18.860;2022-09-09T04:18:33;97976.79;;;14.78;90.30
62057;BME280;48016;50.284;18.860;2022-09-09T04:21:01;97975.73;;;14.74;90.17
62057;BME280;48016;50.284;18.860;2022-09-09T04:23:28;97980.37;;;14.74;90.18
62057;BME280;48016;50.284;18.860;2022-09-09T04:25:57;97983.67;;;14.71;90.37
62057;BME280;48016;50.284;18.860;2022-09-09T04:28:27;97984.47;;;14.71;90.04
62057;BME280;48016;50.284;18.860;2022-09-09T04:30:55;97975.51;;;14.71;89.91
62057;BME280;48016;50.284;18.860;2022-09-09T04:33:24;97978.76;;;14.73;90.22
62057;BME280;48016;50.284;18.860;2022-09-09T04:35:53;97978.45;;;14.74;90.14
62057;BME280;48016;50.284;18.860;2022-09-09T04:38:21;97975.73;;;14.74;90.13
62057;BME280;48016;50.284;18.860;2022-09-09T04:40:52;97975.73;;;14.74;90.15
62057;BME280;48016;50.284;18.860;2022-09-09T04:43:21;97978.17;;;14.76;90.23
62057;BME280;48016;50.284;18.860;2022-09-09T04:45:50;97972.95;;;14.79;90.08
62057;BME280;48016;50.284;18.860;2022-09-09T04:48:18;97974.56;;;14.80;90.19
62057;BME280;48016;50.284;18.860;2022-09-09T04:51:00;97983.26;;;14.82;90.36
62057;BME280;48016;50.284;18.860;2022-09-09T04:53:28;97977.77;;;14.87;90.21
62057;BME280;48016;50.284;18.860;2022-09-09T04:56:07;97983.96;;;14.93;90.07
62057;BME280;48016;50.284;18.860;2022-09-09T04:58:37;97991.23;;;14.98;90.07
62057;BME280;48016;50.284;18.860;2022-09-09T05:01:07;97991.17;;;15.03;89.97
62057;BME280;48016;50.284;18.860;2022-09-09T05:03:35;97991.63;;;15.10;89.96
62057;BME280;48016;50.284;18.860;2022-09-09T05:06:10;97993.20;;;15.16;89.98
62057;BME280;48016;50.284;18.860;2022-09-09T05:08:38;97991.44;;;15.25;90.08
62057;BME280;48016;50.284;18.860;2022-09-09T05:11:26;97985.03;;;15.35;90.11
62057;BME280;48016;50.284;18.860;2022-09-09T05:13:54;97990.64;;;15.44;89.80
62057;BME280;48016;50.284;18.860;2022-09-09T05:16:22;97997.63;;;15.50;89.97
62057;BME280;48016;50.284;18.860;2022-09-09T05:18:50;98000.29;;;15.55;89.62
62057;BME280;48016;50.284;18.860;2022-09-09T05:21:19;98007.00;;;15.63;89.56
62057;BME280;48016;50.284;18.860;2022-09-09T05:23:47;98008.26;;;15.70;89.58
62057;BME280;48016;50.284;18.860;2022-09-09T05:26:15;98016.30;;;15.80;89.82
62057;BME280;48016;50.284;18.860;2022-09-09T05:28:42;98019.89;;;15.95;89.41
62057;BME280;48016;50.284;18.860;2022-09-09T05:31:11;98013.91;;;16.12;89.17
62057;BME280;48016;50.284;18.860;2022-09-09T05:33:41;98010.52;;;16.34;89.07
62057;BME280;48016;50.284;18.860;2022-09-09T05:36:11;98015.01;;;16.57;88.84
62057;BME280;48016;50.284;18.860;2022-09-09T05:38:42;98013.77;;;16.82;88.55
62057;BME280;48016;50.284;18.860;2022-09-09T05:41:11;98015.38;;;17.11;88.35
62057;BME280;48016;50.284;18.860;2022-09-09T05:43:39;98009.58;;;17.40;87.79
62057;BME280;48016;50.284;18.860;2022-09-09T05:46:08;98017.22;;;17.66;87.19
62057;BME280;48016;50.284;18.860;2022-09-09T05:48:41;98006.83;;;17.90;86.71
62057;BME280;48016;50.284;18.860;2022-09-09T05:51:10;98018.29;;;18.15;86.12
62057;BME280;48016;50.284;18.860;2022-09-09T05:53:43;98016.52;;;18.41;85.93
62057;BME280;48016;50.284;18.860;2022-09-09T05:56:15;98024.45;;;18.74;85.57
62057;BME280;48016;50.284;18.860;2022-09-09T05:58:45;98024.13;;;19.07;84.87
62057;BME280;48016;50.284;18.860;2022-09-09T06:01:16;98021.47;;;19.41;83.90
62057;BME280;48016;50.284;18.860;2022-09-09T06:03:45;98024.59;;;19.66;83.01
62057;BME280;48016;50.284;18.860;2022-09-09T06:06:14;98019.27;;;19.96;82.16
62057;BME280;48016;50.284;18.860;2022-09-09T06:08:43;98018.14;;;20.23;81.34
62057;BME280;48016;50.284;18.860;2022-09-09T06:11:17;98018.55;;;20.51;80.51
62057;BME280;48016;50.284;18.860;2022-09-09T06:13:45;98026.59;;;20.73;79.26
62057;BME280;48016;50.284;18.860;2022-09-09T06:16:14;98028.17;;;20.92;78.14
62057;BME280;48016;50.284;18.860;2022-09-09T06:18:42;98020.30;;;21.11;77.47
62057;BME280;48016;50.284;18.860;2022-09-09T06:21:18;98024.73;;;21.33;76.73
62057;BME280;48016;50.284;18.860;2022-09-09T06:23:47;98028.34;;;21.55;76.50
62057;BME280;48016;50.284;18.860;2022-09-09T06:26:15;98018.84;;;21.73;75.60
62057;BME280;48016;50.284;18.860;2022-09-09T06:28:46;98011.45;;;21.86;74.51
62057;BME280;48016;50.284;18.860;2022-09-09T06:31:16;98009.70;;;22.02;74.16
62057;BME280;48016;50.284;18.860;2022-09-09T06:33:51;98028.55;;;22.12;74.02
62057;BME280;48016;50.284;18.860;2022-09-09T06:38:53;98016.95;;;22.28;73.13
62057;BME280;48016;50.284;18.860;2022-09-09T06:41:22;98027.29;;;22.31;71.39
62057;BME280;48016;50.284;18.860;2022-09-09T06:43:50;98023.94;;;22.25;70.91
62057;BME280;48016;50.284;18.860;2022-09-09T06:46:20;98019.91;;;22.23;70.60
62057;BME280;48016;50.284;18.860;2022-09-09T06:48:55;98011.48;;;22.40;71.32
62057;BME280;48016;50.284;18.860;2022-09-09T06:51:35;98021.63;;;22.61;70.99
62057;BME280;48016;50.284;18.860;2022-09-09T06:54:03;98014.33;;;22.77;70.77
62057;BME280;48016;50.284;18.860;2022-09-09T06:56:33;98017.34;;;22.96;69.97
62057;BME280;48016;50.284;18.860;2022-09-09T06:59:06;98011.17;;;23.12;69.90
62057;BME280;48016;50.284;18.860;2022-09-09T07:01:40;98010.11;;;23.29;68.59
62057;BME280;48016;50.284;18.860;2022-09-09T07:04:07;98016.56;;;23.33;68.67
62057;BME280;48016;50.284;18.860;2022-09-09T07:06:44;98002.30;;;23.31;68.10
62057;BME280;48016;50.284;18.860;2022-09-09T07:09:13;98000.81;;;23.33;67.37
62057;BME280;48016;50.284;18.860;2022-09-09T07:11:44;98008.39;;;23.36;67.73
62057;BME280;48016;50.284;18.860;2022-09-09T07:14:12;98006.30;;;23.45;67.80
62057;BME280;48016;50.284;18.860;2022-09-09T07:16:41;98010.90;;;23.54;66.96
62057;BME280;48016;50.284;18.860;2022-09-09T07:19:08;98001.02;;;23.53;66.72
62057;BME280;48016;50.284;18.860;2022-09-09T07:21:36;98009.73;;;23.55;66.59
62057;BME280;48016;50.284;18.860;2022-09-09T07:24:03;98004.69;;;23.57;65.33
62057;BME280;48016;50.284;18.860;2022-09-09T07:26:34;97998.70;;;23.55;66.40
62057;BME280;48016;50.284;18.860;2022-09-09T07:29:02;98002.59;;;23.66;65.84
62057;BME280;48016;50.284;18.860;2022-09-09T07:31:34;98002.05;;;23.73;65.05
62057;BME280;48016;50.284;18.860;2022-09-09T07:34:04;97999.39;;;23.76;65.13
62057;BME280;48016;50.284;18.860;2022-09-09T07:36:39;98007.67;;;23.64;64.92
62057;BME280;48016;50.284;18.860;2022-09-09T07:39:11;98007.31;;;23.65;64.85
62057;BME280;48016;50.284;18.860;2022-09-09T07:41:42;98008.94;;;23.66;64.73
62057;BME280;48016;50.284;18.860;2022-09-09T07:44:16;98015.16;;;23.76;64.94
62057;BME280;48016;50.284;18.860;2022-09-09T07:46:44;98006.47;;;23.89;64.70
62057;BME280;48016;50.284;18.860;2022-09-09T07:49:11;98011.51;;;24.00;64.10
62057;BME280;48016;50.284;18.860;2022-09-09T07:51:41;98012.40;;;24.04;64.00
62057;BME280;48016;50.284;18.860;2022-09-09T07:54:12;98017.36;;;23.98;63.11
62057;BME280;48016;50.284;18.860;2022-09-09T07:56:40;98019.59;;;23.93;63.50
62057;BME280;48016;50.284;18.860;2022-09-09T07:59:08;98023.25;;;23.97;62.95
62057;BME280;48016;50.284;18.860;2022-09-09T08:01:45;98028.88;;;24.00;63.55
62057;BME280;48016;50.284;18.860;2022-09-09T08:04:15;98029.23;;;23.99;63.16
62057;BME280;48016;50.284;18.860;2022-09-09T08:06:54;98026.95;;;23.88;63.14
62057;BME280;48016;50.284;18.860;2022-09-09T08:09:22;98032.28;;;23.81;63.01
62057;BME280;48016;50.284;18.860;2022-09-09T08:11:51;98036.44;;;23.75;62.86
62057;BME280;48016;50.284;18.860;2022-09-09T08:14:19;98036.17;;;23.68;62.87
62057;BME280;48016;50.284;18.860;2022-09-09T08:16:50;98036.77;;;23.61;62.54
62057;BME280;48016;50.284;18.860;2022-09-09T08:19:17;98037.69;;;23.53;62.76
62057;BME280;48016;50.284;18.860;2022-09-09T08:21:45;98030.34;;;23.45;62.91
62057;BME280;48016;50.284;18.860;2022-09-09T08:24:12;98029.54;;;23.44;62.68
62057;BME280;48016;50.284;18.860;2022-09-09T08:26:44;98027.45;;;23.54;63.03
62057;BME280;48016;50.284;18.860;2022-09-09T08:29:13;98032.97;;;23.54;62.92
62057;BME280;48016;50.284;18.860;2022-09-09T08:31:51;98034.93;;;23.53;62.16
62057;BME280;48016;50.284;18.860;2022-09-09T08:34:21;98035.60;;;23.62;63.00
62057;BME280;48016;50.284;18.860;2022-09-09T08:36:50;98040.53;;;23.69;63.02
62057;BME280;48016;50.284;18.860;2022-09-09T08:39:19;98035.70;;;23.66;62.81
62057;BME280;48016;50.284;18.860;2022-09-09T08:50:16;98037.34;;;23.42;62.53
62057;BME280;48016;50.284;18.860;2022-09-09T08:58:32;98035.27;;;23.52;62.82
62057;BME280;48016;50.284;18.860;2022-09-09T09:06:52;98039.20;;;23.75;62.16
62057;BME280;48016;50.284;18.860;2022-09-09T09:12:20;98026.66;;;23.53;62.59
62057;BME280;48016;50.284;18.860;2022-09-09T09:14:49;98037.33;;;23.55;62.20
62057;BME280;48016;50.284;18.860;2022-09-09T09:17:20;98034.83;;;23.50;61.98
62057;BME280;48016;50.284;18.860;2022-09-09T09:19:49;98033.45;;;23.43;61.70
62057;BME280;48016;50.284;18.860;2022-09-09T09:22:29;98038.27;;;23.34;61.16
62057;BME280;48016;50.284;18.860;2022-09-09T09:25:09;98032.17;;;23.29;61.46
62057;BME280;48016;50.284;18.860;2022-09-09T09:28:03;98043.34;;;23.32;61.87
62057;BME280;48016;50.284;18.860;2022-09-09T09:33:24;98035.05;;;23.44;62.06
62057;BME280;48016;50.284;18.860;2022-09-09T09:35:54;98028.38;;;23.45;62.08
62057;BME280;48016;50.284;18.860;2022-09-09T09:38:24;98024.92;;;23.49;61.80
62057;BME280;48016;50.284;18.860;2022-09-09T09:40:54;98023.33;;;23.48;61.67
62057;BME280;48016;50.284;18.860;2022-09-09T09:43:27;98025.75;;;23.49;61.34
62057;BME280;48016;50.284;18.860;2022-09-09T09:45:55;98032.64;;;23.55;61.39
62057;BME280;48016;50.284;18.860;2022-09-09T09:48:26;98030.78;;;23.59;61.18
62057;BME280;48016;50.284;18.860;2022-09-09T09:50:59;98030.78;;;23.59;61.13
62057;BME280;48016;50.284;18.860;2022-09-09T09:53:34;98037.33;;;23.55;60.62
62057;BME280;48016;50.284;18.860;2022-09-09T09:56:09;98038.38;;;23.50;60.70
62057;BME280;48016;50.284;18.860;2022-09-09T10:01:25;98034.70;;;23.58;59.76
62057;BME280;48016;50.284;18.860;2022-09-09T10:03:57;98029.52;;;23.57;59.42
62057;BME280;48016;50.284;18.860;2022-09-09T10:06:35;98033.91;;;23.58;59.61
62057;BME280;48016;50.284;18.860;2022-09-09T10:09:04;98028.13;;;23.63;60.07
62057;BME280;48016;50.284;18.860;2022-09-09T10:11:44;98030.45;;;23.73;60.18
62057;BME280;48016;50.284;18.860;2022-09-09T10:14:21;98040.99;;;23.83;60.39
62057;BME280;48016;50.284;18.860;2022-09-09T10:19:36;98042.08;;;24.07;59.60
62057;BME280;48016;50.284;18.860;2022-09-09T10:32:54;98059.05;;;23.81;58.08
62057;BME280;48016;50.284;18.860;2022-09-09T10:35:40;98067.33;;;23.93;58.39
62057;BME280;48016;50.284;18.860;2022-09-09T10:38:33;98067.63;;;24.04;57.91
62057;BME280;48016;50.284;18.860;2022-09-09T10:41:20;98069.82;;;23.98;58.42
62057;BME280;48016;50.284;18.860;2022-09-09T10:55:42;98059.18;;;24.25;55.73
62057;BME280;48016;50.284;18.860;2022-09-09T10:58:23;98054.94;;;24.15;55.11
62057;BME280;48016;50.284;18.860;2022-09-09T11:01:01;98053.00;;;24.16;54.64
62057;BME280;48016;50.284;18.860;2022-09-09T11:03:31;98061.06;;;24.08;54.81
62057;BME280;48016;50.284;18.860;2022-09-09T11:06:04;98060.31;;;23.96;55.12
62057;BME280;48016;50.284;18.860;2022-09-09T11:08:36;98059.18;;;23.84;55.14
62057;BME280;48016;50.284;18.860;2022-09-09T11:11:18;98057.25;;;23.73;54.94
62057;BME280;48016;50.284;18.860;2022-09-09T11:16:28;98049.06;;;23.64;55.21
62057;BME280;48016;50.284;18.860;2022-09-09T11:19:02;98047.80;;;23.61;55.36
62057;BME280;48016;50.284;18.860;2022-09-09T11:21:57;98050.66;;;23.65;54.88
62057;BME280;48016;50.284;18.860;2022-09-09T11:24:37;98047.01;;;23.73;55.10
62057;BME280;48016;50.284;18.860;2022-09-09T11:27:15;98067.23;;;23.77;55.19
62057;BME280;48016;50.284;18.860;2022-09-09T11:32:52;98058.74;;;23.70;55.15
62057;BME280;48016;50.284;18.860;2022-09-09T11:35:46;98049.06;;;23.64;54.75
62057;BME280;48016;50.284;18.860;2022-09-09T11:38:18;98055.98;;;23.58;54.41
62057;BME280;48016;50.284;18.860;2022-09-09T11:40:46;98062.16;;;23.55;54.15
62057;BME280;48016;50.284;18.860;2022-09-09T11:43:19;98057.11;;;23.57;54.18
62057;BME280;48016;50.284;18.860;2022-09-09T11:45:54;98055.02;;;23.66;53.69
62057;BME280;48016;50.284;18.860;2022-09-09T11:48:35;98051.23;;;23.83;53.76
62057;BME280;48016;50.284;18.860;2022-09-09T11:51:24;98050.95;;;24.00;53.71
62057;BME280;48016;50.284;18.860;2022-09-09T11:53:55;98049.08;;;24.17;53.89
62057;BME280;48016;50.284;18.860;2022-09-09T11:59:06;98041.53;;;24.29;53.16
62057;BME280;48016;50.284;18.860;2022-09-09T12:01:50;98045.47;;;24.28;52.69
62057;BME280;48016;50.284;18.860;2022-09-09T12:04:37;98051.33;;;24.27;53.12
62057;BME280;48016;50.284;18.860;2022-09-09T12:09:43;98045.05;;;24.14;53.26
62057;BME280;48016;50.284;18.860;2022-09-09T12:17:52;98047.77;;;23.86;52.75
62057;BME280;48016;50.284;18.860;2022-09-09T12:20:37;98051.80;;;23.88;53.03
62057;BME280;48016;50.284;18.860;2022-09-09T12:23:07;98059.98;;;23.85;52.21
62057;BME280;48016;50.284;18.860;2022-09-09T12:28:52;98062.17;;;23.79;51.70
62057;BME280;48016;50.284;18.860;2022-09-09T12:31:29;98060.55;;;23.66;51.96
62057;BME280;48016;50.284;18.860;2022-09-09T12:37:18;98062.05;;;23.51;51.27
62057;BME280;48016;50.284;18.860;2022-09-09T12:39:55;98063.69;;;23.52;51.05
62057;BME280;48016;50.284;18.860;2022-09-09T12:42:23;98058.96;;;23.53;50.93
62057;BME280;48016;50.284;18.860;2022-09-09T12:45:02;98058.96;;;23.53;51.47
62057;BME280;48016;50.284;18.860;2022-09-09T12:47:40;98055.27;;;23.49;51.82
62057;BME280;48016;50.284;18.860;2022-09-09T12:50:20;98053.90;;;23.42;52.04
62057;BME280;48016;50.284;18.860;2022-09-09T12:52:54;98049.44;;;23.38;51.93
62057;BME280;48016;50.284;18.860;2022-09-09T12:55:25;98051.15;;;23.30;51.82
62057;BME280;48016;50.284;18.860;2022-09-09T12:57:54;98046.33;;;23.27;51.80
62057;BME280;48016;50.284;18.860;2022-09-09T13:00:24;98044.73;;;23.26;52.27
62057;BME280;48016;50.284;18.860;2022-09-09T13:03:00;98049.30;;;23.22;52.46
62057;BME280;48016;50.284;18.860;2022-09-09T13:05:35;98051.59;;;23.20;52.24
62057;BME280;48016;50.284;18.860;2022-09-09T13:08:06;98045.64;;;23.18;52.13
62057;BME280;48016;50.284;18.860;2022-09-09T13:13:28;98049.08;;;23.15;51.96
62057;BME280;48016;50.284;18.860;2022-09-09T13:16:00;98041.72;;;23.07;51.94
62057;BME280;48016;50.284;18.860;2022-09-09T13:18:30;98035.73;;;23.05;51.82
62057;BME280;48016;50.284;18.860;2022-09-09T13:20:59;98019.89;;;23.01;52.24
62057;BME280;48016;50.284;18.860;2022-09-09T13:23:32;98015.39;;;22.97;52.38
62057;BME280;48016;50.284;18.860;2022-09-09T13:26:02;98013.54;;;22.89;51.91
62057;BME280;48016;50.284;18.860;2022-09-09T13:28:31;98019.59;;;22.82;51.77
62057;BME280;48016;50.284;18.860;2022-09-09T13:31:03;98020.64;;;22.77;51.61
62057;BME280;48016;50.284;18.860;2022-09-09T13:33:38;98019.25;;;22.71;51.35
62057;BME280;48016;50.284;18.860;2022-09-09T13:36:09;98013.16;;;22.66;50.52
62057;BME280;48016;50.284;18.860;2022-09-09T13:41:07;98001.98;;;22.62;50.76
62057;BME280;48016;50.284;18.860;2022-09-09T13:49:03;98006.86;;;22.77;52.19
62057;BME280;48016;50.284;18.860;2022-09-09T13:51:47;97999.17;;;22.83;52.26
62057;BME280;48016;50.284;18.860;2022-09-09T13:54:17;97993.77;;;22.87;51.82
62057;BME280;48016;50.284;18.860;2022-09-09T13:56:45;97997.80;;;22.89;51.96
62057;BME280;48016;50.284;18.860;2022-09-09T13:59:15;97991.81;;;22.87;52.75
62057;BME280;48016;50.284;18.860;2022-09-09T14:01:43;97991.48;;;22.89;52.77
62057;BME280;48016;50.284;18.860;2022-09-09T14:04:11;97991.59;;;22.92;53.48
62057;BME280;48016;50.284;18.860;2022-09-09T14:06:39;97978.75;;;22.96;53.50
62057;BME280;48016;50.284;18.860;2022-09-09T14:09:10;97982.31;;;22.97;53.58
62057;BME280;48016;50.284;18.860;2022-09-09T14:11:38;97988.66;;;22.97;53.78
62057;BME280;48016;50.284;18.860;2022-09-09T14:14:07;97982.31;;;22.97;53.89
62057;BME280;48016;50.284;18.860;2022-09-09T14:16:34;97985.89;;;22.97;53.37
62057;BME280;48016;50.284;18.860;2022-09-09T14:19:01;97990.44;;;22.93;53.81
62057;BME280;48016;50.284;18.860;2022-09-09T14:21:28;97982.86;;;22.90;52.97
62057;BME280;48016;50.284;18.860;2022-09-09T14:23:55;97979.30;;;22.90;53.57
62057;BME280;48016;50.284;18.860;2022-09-09T14:26:24;97982.64;;;22.83;54.03
62057;BME280;48016;50.284;18.860;2022-09-09T14:28:52;97989.75;;;22.84;53.86
62057;BME280;48016;50.284;18.860;2022-09-09T14:31:19;97981.95;;;22.86;54.52
62057;BME280;48016;50.284;18.860;2022-09-09T14:33:47;97988.38;;;22.90;54.55
62057;BME280;48016;50.284;18.860;2022-09-09T14:36:14;97979.20;;;22.86;53.46
62057;BME280;48016;50.284;18.860;2022-09-09T14:38:41;97979.41;;;22.81;53.69
62057;BME280;48016;50.284;18.860;2022-09-09T14:41:11;97984.45;;;22.79;53.58
62057;BME280;48016;50.284;18.860;2022-09-09T14:43:39;97974.59;;;22.78;53.06
62057;BME280;48016;50.284;18.860;2022-09-09T14:46:15;97977.34;;;22.78;52.30
62057;BME280;48016;50.284;18.860;2022-09-09T14:48:42;97974.13;;;22.76;51.69
62057;BME280;48016;50.284;18.860;2022-09-09T14:51:17;97973.68;;;22.74;51.17
62057;BME280;48016;50.284;18.860;2022-09-09T14:53:46;97971.14;;;22.69;50.29
62057;BME280;48016;50.284;18.860;2022-09-09T14:56:16;97970.77;;;22.58;49.97
62057;BME280;48016;50.284;18.860;2022-09-09T14:58:44;97976.85;;;22.51;50.59
62057;BME280;48016;50.284;18.860;2022-09-09T15:01:16;97966.84;;;22.47;50.67
62057;BME280;48016;50.284;18.860;2022-09-09T15:03:58;97970.17;;;22.40;50.55
62057;BME280;48016;50.284;18.860;2022-09-09T15:06:28;97976.36;;;22.37;51.79
62057;BME280;48016;50.284;18.860;2022-09-09T15:08:56;97974.61;;;22.32;52.57
62057;BME280;48016;50.284;18.860;2022-09-09T15:11:29;97975.17;;;22.26;53.25
62057;BME280;48016;50.284;18.860;2022-09-09T15:14:00;97976.06;;;22.18;54.08
62057;BME280;48016;50.284;18.860;2022-09-09T15:16:27;97982.42;;;22.09;55.49
62057;BME280;48016;50.284;18.860;2022-09-09T15:18:57;97984.45;;;22.00;54.95
62057;BME280;48016;50.284;18.860;2022-09-09T15:21:35;97984.05;;;21.89;55.21
62057;BME280;48016;50.284;18.860;2022-09-09T15:24:03;97984.00;;;21.77;55.58
62057;BME280;48016;50.284;18.860;2022-09-09T15:26:31;97980.84;;;21.66;55.75